Feijo, Brazil
Current Conditions -  °F | °C
As of 10:00 AM on Monday 22 Dec 2014 (Local Time) from SBPK Reporting Station
Scattered Clouds Scattered Clouds  
Wind Chill: 66°   Ceiling: Unl
Heat Index: 66°   Visibility: 6mi
Dew Point: 61°   Wind: 16mph
Humidity: 83%   Direction: 250°WSW
Pressure: 29.97"   Gusts: NA
Location:  32.52°S, 53.1°W
Report Text: SBPK 221200Z 25014KT 9999 SCT020 19/16 Q1015
Loading
Personal Weather Stations






























Interactive Weather Map New forecast layout! Learn more

10-Day Weather Forecast

Advertisements
Track Severe Weather on mobile